createdAt,value
2019-01-17T00:00:12.728Z,0
2019-01-17T00:01:12.953Z,0
2019-01-17T00:02:12.706Z,0
2019-01-17T00:03:12.932Z,0
2019-01-17T00:04:12.686Z,0
2019-01-17T00:05:12.660Z,0
2019-01-17T00:06:12.680Z,0
2019-01-17T00:07:12.643Z,0
2019-01-17T00:08:12.629Z,0
2019-01-17T00:09:12.386Z,0
2019-01-17T00:10:12.910Z,0
2019-01-17T00:11:12.855Z,0
2019-01-17T00:12:12.098Z,0
2019-01-17T00:13:12.835Z,0
2019-01-17T00:14:12.577Z,0
2019-01-17T00:15:12.827Z,0
2019-01-17T00:16:12.565Z,0
2019-01-17T00:17:12.789Z,0
2019-01-17T00:18:12.297Z,0
2019-01-17T00:19:12.793Z,0
2019-01-17T00:20:12.800Z,0
2019-01-17T00:21:12.271Z,0
2019-01-17T00:22:12.005Z,0
2019-01-17T00:23:12.560Z,0
2019-01-17T00:24:12.734Z,0
2019-01-17T00:25:12.244Z,0
2019-01-17T00:26:12.783Z,0
2019-01-17T00:27:12.548Z,0
2019-01-17T00:28:12.444Z,0
2019-01-17T00:29:12.811Z,0
2019-01-17T00:30:12.690Z,0
2019-01-17T00:31:12.674Z,0
2019-01-17T00:32:12.657Z,0
2019-01-17T00:33:12.404Z,0
2019-01-17T00:34:12.648Z,0
2019-01-17T00:35:12.644Z,0
2019-01-17T00:36:11.884Z,0
2019-01-17T00:37:12.373Z,0
2019-01-17T00:38:12.121Z,0
2019-01-17T00:39:12.126Z,0
2019-01-17T00:40:12.338Z,0
2019-01-17T00:41:12.341Z,0
2019-01-17T00:42:12.562Z,0
2019-01-17T00:43:12.082Z,0
2019-01-17T00:44:11.804Z,0
2019-01-17T00:45:12.055Z,0
2019-01-17T00:46:12.560Z,0
2019-01-17T00:47:12.268Z,0
2019-01-17T00:48:12.051Z,0
2019-01-17T00:49:12.009Z,0
2019-01-17T00:50:11.788Z,0
2019-01-17T00:51:12.494Z,0
2019-01-17T00:52:12.232Z,0
2019-01-17T00:53:11.712Z,0
2019-01-17T00:54:16.264Z,0
2019-01-17T00:55:12.187Z,0
2019-01-17T00:56:12.178Z,0
2019-01-17T00:57:12.498Z,0
2019-01-17T00:58:12.421Z,0
2019-01-17T00:59:12.144Z,0
2019-01-17T01:00:12.150Z,0
2019-01-17T01:01:12.389Z,0
2019-01-17T01:02:12.383Z,0
2019-01-17T01:03:11.899Z,0
2019-01-17T01:04:11.879Z,0
2019-01-17T01:05:12.368Z,0
2019-01-17T01:06:12.090Z,0
2019-01-17T01:07:12.112Z,0
2019-01-17T01:08:12.069Z,0
2019-01-17T01:09:11.829Z,0
2019-01-17T01:10:11.795Z,0
2019-01-17T01:11:11.811Z,0
2019-01-17T01:12:12.040Z,0
2019-01-17T01:13:12.278Z,0
2019-01-17T01:14:11.784Z,0
2019-01-17T01:15:11.758Z,0
2019-01-17T01:16:11.996Z,0
2019-01-17T01:17:11.742Z,0
2019-01-17T01:18:12.033Z,0
2019-01-17T01:19:12.213Z,0
2019-01-17T01:20:11.965Z,0
2019-01-17T01:21:11.975Z,0
2019-01-17T01:22:11.956Z,0
2019-01-17T01:23:11.713Z,0
2019-01-17T01:24:17.899Z,0
2019-01-17T01:25:11.989Z,0
2019-01-17T01:26:12.176Z,0
2019-01-17T01:27:12.183Z,0
2019-01-17T01:28:11.892Z,0
2019-01-17T01:29:11.641Z,0
2019-01-17T01:30:11.865Z,0
2019-01-17T01:31:11.859Z,0
2019-01-17T01:32:11.856Z,0
2019-01-17T01:33:11.843Z,0
2019-01-17T01:34:11.366Z,0
2019-01-17T01:35:11.835Z,0
2019-01-17T01:36:11.338Z,0
2019-01-17T01:37:11.564Z,0
2019-01-17T01:38:11.559Z,0
2019-01-17T01:39:11.792Z,0
2019-01-17T01:40:12.031Z,0
2019-01-17T01:41:11.774Z,0
2019-01-17T01:42:11.927Z,0
2019-01-17T01:43:11.991Z,0
2019-01-17T01:44:11.513Z,0
2019-01-17T01:45:11.979Z,0
2019-01-17T01:46:11.741Z,0
2019-01-17T01:47:11.723Z,0
2019-01-17T01:48:11.467Z,0
2019-01-17T01:49:11.942Z,0
2019-01-17T01:50:11.440Z,0
2019-01-17T01:51:11.922Z,0
2019-01-17T01:52:11.427Z,0
2019-01-17T01:53:11.915Z,0
2019-01-17T01:54:11.661Z,0
2019-01-17T01:55:11.445Z,0
2019-01-17T01:56:11.396Z,0
2019-01-17T01:57:11.658Z,0
2019-01-17T01:58:11.607Z,0
2019-01-17T01:59:11.615Z,0
2019-01-17T02:00:11.844Z,0
2019-01-17T02:01:11.357Z,0
2019-01-17T02:02:11.856Z,0
2019-01-17T02:03:11.587Z,0
2019-01-17T02:04:11.840Z,0
2019-01-17T02:05:11.558Z,0
2019-01-17T02:06:11.044Z,0
2019-01-17T02:07:11.567Z,0
2019-01-17T02:08:11.788Z,0
2019-01-17T02:09:11.520Z,0
2019-01-17T02:10:11.274Z,0
2019-01-17T02:11:11.510Z,0
2019-01-17T02:12:11.505Z,0
2019-01-17T02:13:11.498Z,0
2019-01-17T02:14:11.230Z,0
2019-01-17T02:15:11.497Z,0
2019-01-17T02:16:11.220Z,0
2019-01-17T02:17:11.561Z,0
2019-01-17T02:18:11.456Z,0
2019-01-17T02:19:11.703Z,0
2019-01-17T02:20:11.187Z,0
2019-01-17T02:21:11.719Z,0
2019-01-17T02:22:11.200Z,0
2019-01-17T02:23:11.437Z,0
2019-01-17T02:24:11.399Z,0
2019-01-17T02:25:11.657Z,0
2019-01-17T02:26:10.883Z,0
2019-01-17T02:27:11.604Z,0
2019-01-17T02:28:11.411Z,0
2019-01-17T02:29:11.358Z,0
2019-01-17T02:30:11.368Z,0
2019-01-17T02:31:11.348Z,0
2019-01-17T02:32:11.577Z,0
2019-01-17T02:33:11.082Z,0
2019-01-17T02:34:11.317Z,0
2019-01-17T02:35:11.049Z,0
2019-01-17T02:36:11.531Z,0
2019-01-17T02:37:11.052Z,0
2019-01-17T02:38:11.062Z,0
2019-01-17T02:39:11.526Z,0
2019-01-17T02:40:11.032Z,0
2019-01-17T02:41:11.025Z,0
2019-01-17T02:42:10.770Z,0
2019-01-17T02:43:10.989Z,0
2019-01-17T02:44:11.239Z,0
2019-01-17T02:45:10.733Z,0
2019-01-17T02:46:10.956Z,0
2019-01-17T02:47:11.212Z,0
2019-01-17T02:48:11.192Z,0
2019-01-17T02:49:11.195Z,0
2019-01-17T02:50:11.174Z,0
2019-01-17T02:51:11.422Z,0
2019-01-17T02:52:11.407Z,0
2019-01-17T02:53:10.934Z,0
2019-01-17T02:54:11.384Z,0
2019-01-17T02:55:10.894Z,0
2019-01-17T02:56:11.384Z,0
2019-01-17T02:57:11.126Z,0
2019-01-17T02:58:11.112Z,0
2019-01-17T02:59:11.101Z,0
2019-01-17T03:00:11.094Z,0
2019-01-17T03:01:11.082Z,0
2019-01-17T03:02:10.839Z,0
2019-01-17T03:03:10.825Z,0
2019-01-17T03:04:11.318Z,0
2019-01-17T03:05:11.072Z,0
2019-01-17T03:06:11.324Z,0
2019-01-17T03:07:11.286Z,0
2019-01-17T03:08:11.284Z,0
2019-01-17T03:09:11.032Z,0
2019-01-17T03:10:11.310Z,0
2019-01-17T03:11:10.741Z,0
2019-01-17T03:12:11.238Z,0
2019-01-17T03:13:11.237Z,0
2019-01-17T03:14:10.968Z,0
2019-01-17T03:15:11.242Z,0
2019-01-17T03:16:10.968Z,0
2019-01-17T03:17:11.004Z,0
2019-01-17T03:18:10.700Z,0
2019-01-17T03:19:11.197Z,0
2019-01-17T03:20:11.163Z,0
2019-01-17T03:21:11.168Z,0
2019-01-17T03:22:10.915Z,0
2019-01-17T03:23:10.662Z,0
2019-01-17T03:24:10.637Z,0
2019-01-17T03:25:10.884Z,0
2019-01-17T03:26:11.127Z,0
2019-01-17T03:27:10.883Z,0
2019-01-17T03:28:10.843Z,0
2019-01-17T03:29:10.837Z,0
2019-01-17T03:30:11.148Z,0
2019-01-17T03:31:10.591Z,0
2019-01-17T03:32:10.951Z,0
2019-01-17T03:33:10.851Z,0
2019-01-17T03:34:10.824Z,0
2019-01-17T03:35:11.052Z,0
2019-01-17T03:36:10.828Z,0
2019-01-17T03:37:11.034Z,0
2019-01-17T03:38:10.801Z,0
2019-01-17T03:39:10.782Z,0
2019-01-17T03:40:10.747Z,0
2019-01-17T03:41:11.002Z,0
2019-01-17T03:42:10.766Z,0
2019-01-17T03:43:10.716Z,0
2019-01-17T03:44:10.721Z,0
2019-01-17T03:45:10.250Z,0
2019-01-17T03:46:10.450Z,0
2019-01-17T03:47:10.976Z,0
2019-01-17T03:48:10.720Z,0
2019-01-17T03:49:10.434Z,0
2019-01-17T03:50:10.218Z,0
2019-01-17T03:51:10.928Z,0
2019-01-17T03:52:10.912Z,0
2019-01-17T03:53:10.909Z,0
2019-01-17T03:54:10.644Z,0
2019-01-17T03:55:10.701Z,0
2019-01-17T03:56:10.868Z,0
2019-01-17T03:57:11.830Z,0
2019-01-17T03:58:10.612Z,0
2019-01-17T03:59:10.611Z,0
2019-01-17T04:00:10.851Z,0
2019-01-17T04:01:10.600Z,0
2019-01-17T04:02:10.568Z,0
2019-01-17T04:03:10.558Z,0
2019-01-17T04:04:10.598Z,0
2019-01-17T04:05:10.554Z,0
2019-01-17T04:06:10.565Z,0
2019-01-17T04:07:10.530Z,0
2019-01-17T04:08:10.289Z,0
2019-01-17T04:09:10.804Z,0
2019-01-17T04:10:10.517Z,0
2019-01-17T04:11:10.267Z,0
2019-01-17T04:12:10.247Z,0
2019-01-17T04:13:10.495Z,0
2019-01-17T04:14:10.242Z,0
2019-01-17T04:15:10.743Z,0
2019-01-17T04:16:10.726Z,0
2019-01-17T04:17:10.449Z,0
2019-01-17T04:18:10.701Z,0
2019-01-17T04:19:10.686Z,0
2019-01-17T04:20:10.450Z,0
2019-01-17T04:21:10.690Z,0
2019-01-17T04:22:10.415Z,0
2019-01-17T04:23:10.166Z,0
2019-01-17T04:24:10.168Z,0
2019-01-17T04:25:10.413Z,0
2019-01-17T04:26:10.140Z,0
2019-01-17T04:27:10.408Z,0
2019-01-17T04:28:10.178Z,0
2019-01-17T04:29:10.117Z,0
2019-01-17T04:30:10.116Z,0
2019-01-17T04:31:10.341Z,0
2019-01-17T04:32:10.382Z,0
2019-01-17T04:33:10.362Z,0
2019-01-17T04:34:11.823Z,0
2019-01-17T04:35:10.602Z,0
2019-01-17T04:36:10.587Z,0
2019-01-17T04:37:10.312Z,0
2019-01-17T04:38:10.552Z,0
2019-01-17T04:39:10.057Z,0
2019-01-17T04:40:10.562Z,0
2019-01-17T04:41:10.528Z,0
2019-01-17T04:42:10.017Z,0
2019-01-17T04:43:10.544Z,0
2019-01-17T04:44:10.506Z,0
2019-01-17T04:45:10.252Z,0
2019-01-17T04:46:10.241Z,0
2019-01-17T04:47:10.496Z,0
2019-01-17T04:48:10.243Z,0
2019-01-17T04:49:09.981Z,0
2019-01-17T04:50:10.206Z,0
2019-01-17T04:51:09.943Z,0
2019-01-17T04:52:10.188Z,0
2019-01-17T04:53:10.195Z,0
2019-01-17T04:54:10.185Z,0
2019-01-17T04:55:12.493Z,0
2019-01-17T04:56:10.400Z,0
2019-01-17T04:57:10.399Z,0
2019-01-17T04:58:10.450Z,0
2019-01-17T04:59:10.145Z,0
2019-01-17T05:00:10.730Z,0
2019-01-17T05:01:10.382Z,0
2019-01-17T05:02:10.140Z,0
2019-01-17T05:03:10.382Z,0
2019-01-17T05:04:10.101Z,0
2019-01-17T05:05:09.835Z,0
2019-01-17T05:06:09.827Z,0
2019-01-17T05:07:10.084Z,0
2019-01-17T05:08:10.585Z,0
2019-01-17T05:09:10.318Z,0
2019-01-17T05:10:09.803Z,0
2019-01-17T05:11:10.388Z,0
2019-01-17T05:12:10.050Z,0
2019-01-17T05:13:09.816Z,0
2019-01-17T05:14:10.345Z,0
2019-01-17T05:15:10.264Z,0
2019-01-17T05:16:09.752Z,0
2019-01-17T05:17:10.254Z,0
2019-01-17T05:18:10.257Z,0
2019-01-17T05:19:10.248Z,0
2019-01-17T05:20:10.246Z,0
2019-01-17T05:21:10.229Z,0
2019-01-17T05:22:09.711Z,0
2019-01-17T05:23:11.640Z,0
2019-01-17T05:24:10.217Z,0
2019-01-17T05:25:16.938Z,0
2019-01-17T05:26:10.191Z,0
2019-01-17T05:27:10.189Z,0
2019-01-17T05:28:09.941Z,0
2019-01-17T05:29:09.431Z,0
2019-01-17T05:30:09.682Z,0
2019-01-17T05:31:10.987Z,0
2019-01-17T05:32:10.159Z,0
2019-01-17T05:33:10.169Z,0
2019-01-17T05:34:10.142Z,0
2019-01-17T05:35:09.906Z,0
2019-01-17T05:36:09.651Z,0
2019-01-17T05:37:09.854Z,0
2019-01-17T05:38:09.854Z,0
2019-01-17T05:39:09.869Z,0
2019-01-17T05:40:09.840Z,0
2019-01-17T05:41:09.837Z,0
2019-01-17T05:42:09.842Z,0
2019-01-17T05:43:10.052Z,0
2019-01-17T05:44:09.801Z,0
2019-01-17T05:45:09.794Z,0
2019-01-17T05:46:09.815Z,0
2019-01-17T05:47:10.035Z,0
2019-01-17T05:48:10.012Z,0
2019-01-17T05:49:10.014Z,0
2019-01-17T05:50:09.534Z,0
2019-01-17T05:51:09.793Z,0
2019-01-17T05:52:09.498Z,0
2019-01-17T05:53:09.977Z,0
2019-01-17T05:54:09.482Z,0
2019-01-17T05:55:09.998Z,0
2019-01-17T05:56:09.735Z,0
2019-01-17T05:57:09.960Z,0
2019-01-17T05:58:09.952Z,0
2019-01-17T05:59:09.965Z,0
2019-01-17T06:00:09.690Z,0
2019-01-17T06:01:10.738Z,0
2019-01-17T06:02:09.432Z,0
2019-01-17T06:03:09.409Z,0
2019-01-17T06:04:09.688Z,0
2019-01-17T06:05:09.908Z,0
2019-01-17T06:06:09.692Z,0
2019-01-17T06:07:09.896Z,0
2019-01-17T06:08:09.645Z,0
2019-01-17T06:09:09.412Z,0
2019-01-17T06:10:09.389Z,0
2019-01-17T06:11:09.615Z,0
2019-01-17T06:12:09.607Z,0
2019-01-17T06:13:09.868Z,0
2019-01-17T06:14:09.847Z,0
2019-01-17T06:15:09.618Z,0
2019-01-17T06:16:09.842Z,0
2019-01-17T06:17:09.332Z,0
2019-01-17T06:18:09.586Z,0
2019-01-17T06:19:09.814Z,0
2019-01-17T06:20:09.552Z,0
2019-01-17T06:21:09.287Z,0
2019-01-17T06:22:09.527Z,0
2019-01-17T06:23:09.810Z,0
2019-01-17T06:24:09.773Z,0
2019-01-17T06:25:09.806Z,0
2019-01-17T06:26:09.516Z,0
2019-01-17T06:27:09.242Z,0
2019-01-17T06:28:09.326Z,0
2019-01-17T06:29:09.476Z,0
2019-01-17T06:30:09.483Z,0
2019-01-17T06:31:09.485Z,0
2019-01-17T06:32:10.005Z,0
2019-01-17T06:33:09.450Z,0
2019-01-17T06:34:09.187Z,0
2019-01-17T06:35:09.710Z,0
2019-01-17T06:36:09.214Z,0
2019-01-17T06:37:09.166Z,0
2019-01-17T06:38:09.415Z,0
2019-01-17T06:39:09.660Z,0
2019-01-17T06:40:09.155Z,0
2019-01-17T06:41:09.389Z,0
2019-01-17T06:42:09.655Z,0
2019-01-17T06:43:09.683Z,4
2019-01-17T06:44:09.385Z,4
2019-01-17T06:45:09.654Z,4
2019-01-17T06:46:09.606Z,0
2019-01-17T06:47:09.356Z,4
2019-01-17T06:48:09.407Z,4
2019-01-17T06:49:09.373Z,4
2019-01-17T06:50:09.066Z,4
2019-01-17T06:51:09.321Z,4
2019-01-17T06:52:09.327Z,8
2019-01-17T06:53:09.553Z,8
2019-01-17T06:54:09.045Z,8
2019-01-17T06:55:10.920Z,12
2019-01-17T06:56:09.535Z,12
2019-01-17T06:57:09.270Z,16
2019-01-17T06:58:09.288Z,20
2019-01-17T06:59:09.272Z,20
2019-01-17T07:00:09.529Z,24
2019-01-17T07:01:09.000Z,24
2019-01-17T07:02:09.275Z,32
2019-01-17T07:03:09.238Z,36
2019-01-17T07:04:09.234Z,40
2019-01-17T07:05:09.463Z,48
2019-01-17T07:06:09.213Z,56
2019-01-17T07:07:09.469Z,64
2019-01-17T07:08:09.443Z,72
2019-01-17T07:09:09.504Z,72
2019-01-17T07:10:09.469Z,68
2019-01-17T07:11:08.929Z,76
2019-01-17T07:12:09.177Z,76
2019-01-17T07:13:09.170Z,76
2019-01-17T07:14:09.427Z,88
2019-01-17T07:15:09.164Z,92
2019-01-17T07:16:08.883Z,104
2019-01-17T07:17:09.174Z,108
2019-01-17T07:18:09.125Z,108
2019-01-17T07:19:09.127Z,120
2019-01-17T07:20:09.123Z,132
2019-01-17T07:21:09.102Z,148
2019-01-17T07:22:08.634Z,160
2019-01-17T07:23:09.108Z,164
2019-01-17T07:24:09.350Z,164
2019-01-17T07:25:08.837Z,176
2019-01-17T07:26:08.841Z,176
2019-01-17T07:27:08.839Z,184
2019-01-17T07:28:09.083Z,204
2019-01-17T07:29:08.812Z,232
2019-01-17T07:30:08.820Z,256
2019-01-17T07:31:09.061Z,268
2019-01-17T07:32:09.057Z,264
2019-01-17T07:33:08.781Z,244
2019-01-17T07:34:09.271Z,260
2019-01-17T07:35:08.790Z,276
2019-01-17T07:36:09.006Z,280
2019-01-17T07:37:08.996Z,276
2019-01-17T07:38:08.762Z,260
2019-01-17T07:39:08.768Z,256
2019-01-17T07:40:09.013Z,260
2019-01-17T07:41:08.985Z,280
2019-01-17T07:42:09.212Z,280
2019-01-17T07:43:08.723Z,288
2019-01-17T07:44:08.970Z,304
2019-01-17T07:45:09.191Z,312
2019-01-17T07:46:08.687Z,304
2019-01-17T07:47:08.675Z,280
2019-01-17T07:48:08.932Z,296
2019-01-17T07:49:08.671Z,316
2019-01-17T07:50:09.174Z,320
2019-01-17T07:51:08.912Z,316
2019-01-17T07:52:09.713Z,360
2019-01-17T07:53:08.890Z,424
2019-01-17T07:54:09.135Z,436
2019-01-17T07:55:08.878Z,400
2019-01-17T07:56:08.871Z,368
2019-01-17T07:57:08.874Z,412
2019-01-17T07:58:08.855Z,480
2019-01-17T07:59:08.863Z,484
2019-01-17T08:00:09.091Z,464
2019-01-17T08:01:14.841Z,500
2019-01-17T08:02:09.092Z,556
2019-01-17T08:03:08.574Z,564
2019-01-17T08:04:08.835Z,536
2019-01-17T08:05:09.071Z,560
2019-01-17T08:06:08.590Z,612
2019-01-17T08:07:09.060Z,676
2019-01-17T08:08:08.796Z,756
2019-01-17T08:09:08.775Z,800
2019-01-17T08:10:08.517Z,856
2019-01-17T08:11:08.515Z,924
2019-01-17T08:12:12.090Z,952
2019-01-17T08:13:08.511Z,948
2019-01-17T08:14:08.497Z,992
2019-01-17T08:15:08.741Z,1012
2019-01-17T08:16:08.998Z,964
2019-01-17T08:17:08.976Z,828
2019-01-17T08:18:08.495Z,784
2019-01-17T08:19:08.961Z,752
2019-01-17T08:20:08.967Z,764
2019-01-17T08:21:08.699Z,784
2019-01-17T08:22:08.949Z,828
2019-01-17T08:23:08.459Z,816
2019-01-17T08:24:08.431Z,780
2019-01-17T08:25:08.434Z,820
2019-01-17T08:26:08.928Z,864
2019-01-17T08:27:08.673Z,892
2019-01-17T08:28:08.398Z,960
2019-01-17T08:29:08.919Z,968
2019-01-17T08:30:08.640Z,1016
2019-01-17T08:31:08.634Z,1104
2019-01-17T08:32:08.386Z,1172
2019-01-17T08:33:08.879Z,1304
2019-01-17T08:34:08.866Z,1364
2019-01-17T08:35:08.864Z,1264
2019-01-17T08:36:08.596Z,1148
2019-01-17T08:37:08.851Z,1092
2019-01-17T08:38:08.839Z,1084
2019-01-17T08:39:08.588Z,1076
2019-01-17T08:40:08.326Z,1020
2019-01-17T08:41:08.813Z,992
2019-01-17T08:42:08.319Z,984
2019-01-17T08:43:08.085Z,1004
2019-01-17T08:44:08.559Z,1036
2019-01-17T08:45:08.810Z,1100
2019-01-17T08:46:08.550Z,1160
2019-01-17T08:47:08.806Z,1160
2019-01-17T08:48:08.531Z,1228
2019-01-17T08:49:08.531Z,1388
2019-01-17T08:50:08.770Z,1452
2019-01-17T08:51:08.518Z,1544
2019-01-17T08:52:08.529Z,1716
2019-01-17T08:53:08.517Z,1640
2019-01-17T08:54:08.469Z,1408
2019-01-17T08:55:08.493Z,1312
2019-01-17T08:56:08.470Z,1240
2019-01-17T08:57:08.225Z,1380
2019-01-17T08:58:08.707Z,1412
2019-01-17T08:59:08.452Z,1352
2019-01-17T09:00:08.706Z,1292
2019-01-17T09:01:08.452Z,1320
2019-01-17T09:02:08.190Z,1508
2019-01-17T09:03:08.445Z,1724
2019-01-17T09:04:08.411Z,1852
2019-01-17T09:05:08.157Z,1976
2019-01-17T09:06:08.663Z,2056
2019-01-17T09:07:08.151Z,2088
2019-01-17T09:08:08.474Z,2052
2019-01-17T09:09:08.503Z,2068
2019-01-17T09:10:08.388Z,2112
2019-01-17T09:11:08.398Z,2244
2019-01-17T09:12:08.117Z,2440
2019-01-17T09:13:08.615Z,2488
2019-01-17T09:14:09.009Z,2460
2019-01-17T09:15:08.614Z,2400
2019-01-17T09:16:08.587Z,2364
2019-01-17T09:17:08.608Z,2320
2019-01-17T09:18:08.347Z,2316
2019-01-17T09:19:08.583Z,2316
2019-01-17T09:20:08.601Z,2276
2019-01-17T09:21:08.328Z,2272
2019-01-17T09:22:08.315Z,2296
2019-01-17T09:23:08.569Z,2372
2019-01-17T09:24:08.318Z,2412
2019-01-17T09:25:08.300Z,2484
2019-01-17T09:26:14.604Z,2552
2019-01-17T09:27:08.531Z,2548
2019-01-17T09:28:08.280Z,2540
2019-01-17T09:29:08.512Z,2624
2019-01-17T09:30:08.259Z,2664
2019-01-17T09:31:08.012Z,2648
2019-01-17T09:32:08.273Z,2588
2019-01-17T09:33:08.239Z,2608
2019-01-17T09:34:08.500Z,2580
2019-01-17T09:35:07.755Z,2588
2019-01-17T09:36:08.234Z,2608
2019-01-17T09:37:08.219Z,2604
2019-01-17T09:38:08.282Z,2536
2019-01-17T09:39:07.966Z,2532
2019-01-17T09:40:08.214Z,2532
2019-01-17T09:41:07.943Z,2452
2019-01-17T09:42:08.431Z,2416
2019-01-17T09:43:07.939Z,2380
2019-01-17T09:44:07.944Z,2288
2019-01-17T09:45:08.414Z,2212
2019-01-17T09:46:07.914Z,2140
2019-01-17T09:47:08.173Z,2076
2019-01-17T09:48:09.242Z,2012
2019-01-17T09:49:07.892Z,1968
2019-01-17T09:50:08.140Z,1936
2019-01-17T09:51:08.134Z,1908
2019-01-17T09:52:08.122Z,1896
2019-01-17T09:53:08.383Z,1940
2019-01-17T09:54:08.376Z,2056
2019-01-17T09:55:08.114Z,2216
2019-01-17T09:56:08.113Z,2416
2019-01-17T09:57:08.363Z,2672
2019-01-17T09:58:07.599Z,2888
2019-01-17T09:59:07.864Z,3000
2019-01-17T10:00:07.841Z,3080
2019-01-17T10:01:08.065Z,3144
2019-01-17T10:02:08.327Z,3124
2019-01-17T10:03:08.324Z,2964
2019-01-17T10:04:08.074Z,2796
2019-01-17T10:05:08.312Z,2728
2019-01-17T10:06:07.792Z,2704
2019-01-17T10:07:08.284Z,2668
2019-01-17T10:08:07.543Z,2608
2019-01-17T10:09:08.271Z,2500
2019-01-17T10:10:08.292Z,2384
2019-01-17T10:11:08.033Z,2284
2019-01-17T10:12:08.259Z,2284
2019-01-17T10:13:07.815Z,2344
2019-01-17T10:14:07.989Z,2452
2019-01-17T10:15:08.007Z,2552
2019-01-17T10:16:08.220Z,2628
2019-01-17T10:17:07.968Z,2732
2019-01-17T10:18:07.970Z,2852
2019-01-17T10:19:07.465Z,2948
2019-01-17T10:20:08.412Z,3028
2019-01-17T10:21:07.718Z,3096
2019-01-17T10:22:07.971Z,3104
2019-01-17T10:23:08.190Z,3036
2019-01-17T10:24:08.200Z,2960
2019-01-17T10:25:07.922Z,2932
2019-01-17T10:26:08.172Z,2900
2019-01-17T10:27:08.154Z,2836
2019-01-17T10:28:07.917Z,2756
2019-01-17T10:29:07.911Z,2680
2019-01-17T10:30:07.922Z,2628
2019-01-17T10:31:08.130Z,2596
2019-01-17T10:32:07.892Z,2596
2019-01-17T10:33:07.888Z,2604
2019-01-17T10:34:07.884Z,2592
2019-01-17T10:35:07.617Z,2568
2019-01-17T10:36:07.873Z,2600
2019-01-17T10:37:07.856Z,2652
2019-01-17T10:38:08.091Z,2680
2019-01-17T10:39:08.080Z,2704
2019-01-17T10:40:07.822Z,2736
2019-01-17T10:41:07.826Z,2780
2019-01-17T10:42:08.062Z,2820
2019-01-17T10:43:08.069Z,2816
2019-01-17T10:44:07.819Z,2768
2019-01-17T10:45:08.060Z,2720
2019-01-17T10:46:07.798Z,2700
2019-01-17T10:47:07.779Z,2712
2019-01-17T10:48:08.047Z,2672
2019-01-17T10:49:08.025Z,2616
2019-01-17T10:50:07.522Z,2588
2019-01-17T10:51:07.514Z,2596
2019-01-17T10:52:08.016Z,2568
2019-01-17T10:53:07.744Z,2532
2019-01-17T10:54:07.744Z,2492
2019-01-17T10:55:07.486Z,2476
2019-01-17T10:56:07.733Z,2488
2019-01-17T10:57:07.971Z,2548
2019-01-17T10:58:07.723Z,2648
2019-01-17T10:59:07.485Z,2680
2019-01-17T11:00:07.740Z,2704
2019-01-17T11:01:07.689Z,2760
2019-01-17T11:02:07.932Z,2808
2019-01-17T11:03:08.755Z,2804
2019-01-17T11:04:07.688Z,2800
2019-01-17T11:05:07.938Z,2900
2019-01-17T11:06:07.190Z,3068
2019-01-17T11:07:07.931Z,3112
2019-01-17T11:08:07.690Z,3092
2019-01-17T11:09:07.421Z,3100
2019-01-17T11:10:07.403Z,3056
2019-01-17T11:11:07.438Z,3044
2019-01-17T11:12:07.149Z,3092
2019-01-17T11:13:07.141Z,3480
2019-01-17T11:14:07.626Z,3952
2019-01-17T11:15:07.871Z,3984
2019-01-17T11:16:07.876Z,3924
2019-01-17T11:17:07.613Z,3928
2019-01-17T11:18:07.625Z,4056
2019-01-17T11:19:07.617Z,4308
2019-01-17T11:20:07.575Z,4572
2019-01-17T11:21:07.826Z,4780
2019-01-17T11:22:07.585Z,4888
2019-01-17T11:23:07.810Z,4908
2019-01-17T11:24:07.812Z,4728
2019-01-17T11:25:09.011Z,4720
2019-01-17T11:26:07.555Z,4852
2019-01-17T11:27:07.299Z,5136
2019-01-17T11:28:07.545Z,5392
2019-01-17T11:29:07.519Z,5088
2019-01-17T11:30:07.790Z,4368
2019-01-17T11:31:07.771Z,4128
2019-01-17T11:32:07.770Z,3904
2019-01-17T11:33:07.524Z,3548
2019-01-17T11:34:07.748Z,3528
2019-01-17T11:35:07.515Z,3956
2019-01-17T11:36:07.243Z,4244
2019-01-17T11:37:07.517Z,4292
2019-01-17T11:38:07.497Z,4440
2019-01-17T11:39:07.487Z,4620
2019-01-17T11:40:07.749Z,4756
2019-01-17T11:41:07.729Z,4964
2019-01-17T11:42:06.944Z,4936
2019-01-17T11:43:07.478Z,4560
2019-01-17T11:44:07.457Z,4012
2019-01-17T11:45:07.463Z,3684
2019-01-17T11:46:07.717Z,3756
2019-01-17T11:47:07.693Z,3788
2019-01-17T11:48:07.678Z,3652
2019-01-17T11:49:07.696Z,3552
2019-01-17T11:50:07.685Z,3540
2019-01-17T11:51:07.428Z,3196
2019-01-17T11:52:07.420Z,3272
2019-01-17T11:53:07.673Z,3532
2019-01-17T11:54:07.187Z,3620
2019-01-17T11:55:07.400Z,3928
2019-01-17T11:56:07.405Z,3956
2019-01-17T11:57:07.905Z,3960
2019-01-17T11:58:07.358Z,3868
2019-01-17T11:59:07.637Z,3460
2019-01-17T12:00:07.374Z,3224
2019-01-17T12:01:07.353Z,3444
2019-01-17T12:02:07.345Z,3388
2019-01-17T12:03:07.625Z,3484
2019-01-17T12:04:07.338Z,3668
2019-01-17T12:05:07.339Z,3476
2019-01-17T12:06:07.584Z,2864
2019-01-17T12:07:07.600Z,2284
2019-01-17T12:08:07.308Z,2012
2019-01-17T12:09:07.330Z,1940
2019-01-17T12:10:07.569Z,2064
2019-01-17T12:11:07.306Z,2052
2019-01-17T12:12:07.317Z,2108
2019-01-17T12:13:07.036Z,2376
2019-01-17T12:14:07.030Z,3096
2019-01-17T12:15:07.278Z,3400
2019-01-17T12:16:07.276Z,3368
2019-01-17T12:17:07.510Z,3536
2019-01-17T12:18:07.527Z,3724
2019-01-17T12:19:07.274Z,3812
2019-01-17T12:20:07.257Z,3840
2019-01-17T12:21:07.244Z,3864
2019-01-17T12:22:07.260Z,3844
2019-01-17T12:23:07.259Z,3808
2019-01-17T12:24:06.987Z,3800
2019-01-17T12:25:07.221Z,3840
2019-01-17T12:26:07.233Z,3848
2019-01-17T12:27:06.969Z,4080
2019-01-17T12:28:06.973Z,4248
2019-01-17T12:29:07.244Z,4288
2019-01-17T12:30:07.436Z,4264
2019-01-17T12:31:07.204Z,4196
2019-01-17T12:32:07.440Z,4148
2019-01-17T12:33:07.437Z,4192
2019-01-17T12:34:07.163Z,4420
2019-01-17T12:35:07.170Z,4804
2019-01-17T12:36:07.143Z,5000
2019-01-17T12:37:07.407Z,4960
2019-01-17T12:38:07.139Z,4560
2019-01-17T12:39:07.381Z,4548
2019-01-17T12:40:07.365Z,4592
2019-01-17T12:41:07.129Z,4584
2019-01-17T12:42:07.359Z,4512
2019-01-17T12:43:07.106Z,4456
2019-01-17T12:44:07.093Z,4364
2019-01-17T12:45:07.103Z,4324
2019-01-17T12:46:06.857Z,4308
2019-01-17T12:47:07.347Z,4332
2019-01-17T12:48:07.327Z,4260
2019-01-17T12:49:07.315Z,4244
2019-01-17T12:50:07.070Z,4244
2019-01-17T12:51:07.324Z,4320
2019-01-17T12:52:07.285Z,4364
2019-01-17T12:53:07.060Z,4420
2019-01-17T12:54:07.048Z,4372
2019-01-17T12:55:07.293Z,4356
2019-01-17T12:56:07.022Z,4332
2019-01-17T12:57:07.263Z,4408
2019-01-17T12:58:07.279Z,4528
2019-01-17T12:59:07.254Z,4616
2019-01-17T13:00:12.519Z,4620
2019-01-17T13:01:07.002Z,4548
2019-01-17T13:02:07.262Z,4612
2019-01-17T13:03:07.002Z,4632
2019-01-17T13:04:07.232Z,4464
2019-01-17T13:05:07.023Z,4284
2019-01-17T13:06:06.741Z,4444
2019-01-17T13:07:07.020Z,4628
2019-01-17T13:08:06.782Z,4640
2019-01-17T13:09:06.953Z,4564
2019-01-17T13:10:06.542Z,4296
2019-01-17T13:11:07.216Z,3940
2019-01-17T13:12:06.957Z,3792
2019-01-17T13:13:07.199Z,3948
2019-01-17T13:14:06.936Z,4176
2019-01-17T13:15:07.240Z,4184
2019-01-17T13:16:07.162Z,4136
2019-01-17T13:17:06.936Z,4092
2019-01-17T13:18:06.686Z,4012
2019-01-17T13:19:06.915Z,3988
2019-01-17T13:20:06.903Z,4064
2019-01-17T13:21:06.643Z,4024
2019-01-17T13:22:06.924Z,3836
2019-01-17T13:23:06.376Z,3744
2019-01-17T13:24:07.115Z,3728
2019-01-17T13:25:06.862Z,3712
2019-01-17T13:26:07.102Z,3764
2019-01-17T13:27:07.677Z,3784
2019-01-17T13:28:06.353Z,3760
2019-01-17T13:29:07.088Z,3716
2019-01-17T13:30:07.390Z,3704
2019-01-17T13:31:07.089Z,3720
2019-01-17T13:32:07.088Z,3752
2019-01-17T13:33:06.816Z,3820
2019-01-17T13:34:07.059Z,3680
2019-01-17T13:35:07.092Z,3560
2019-01-17T13:36:06.837Z,3572
2019-01-17T13:37:06.808Z,3368
2019-01-17T13:38:06.294Z,3144
2019-01-17T13:39:06.805Z,3052
2019-01-17T13:40:06.856Z,3060
2019-01-17T13:41:07.009Z,3296
2019-01-17T13:42:06.765Z,3392
2019-01-17T13:43:06.783Z,3696
2019-01-17T13:44:06.845Z,3928
2019-01-17T13:45:06.803Z,4068
2019-01-17T13:46:07.027Z,3680
2019-01-17T13:47:06.496Z,3340
2019-01-17T13:48:06.971Z,3192
2019-01-17T13:49:06.816Z,3116
2019-01-17T13:50:06.731Z,3064
2019-01-17T13:51:06.736Z,3084
2019-01-17T13:52:06.463Z,3016
2019-01-17T13:53:06.716Z,3104
2019-01-17T13:54:06.758Z,3292
2019-01-17T13:55:06.685Z,3596
2019-01-17T13:56:06.196Z,3452
2019-01-17T13:57:12.321Z,3780
2019-01-17T13:58:06.913Z,3860
2019-01-17T13:59:06.947Z,3828
2019-01-17T14:00:06.402Z,3728
2019-01-17T14:01:06.420Z,3680
2019-01-17T14:02:06.903Z,3676
2019-01-17T14:03:06.392Z,3688